createdAt,value
2017-11-15T13:20:05.723Z,55
2017-11-15T13:21:05.716Z,55
2017-11-15T13:22:05.749Z,60
2017-11-15T13:23:05.782Z,60
2017-11-15T13:24:05.818Z,60
2017-11-15T13:25:05.854Z,60
2017-11-15T13:26:05.887Z,65
2017-11-15T13:27:05.920Z,65
2017-11-15T13:28:05.945Z,65
2017-11-15T13:29:05.973Z,60
2017-11-15T13:30:06.275Z,55
2017-11-15T13:31:06.050Z,55
2017-11-15T13:32:06.091Z,65
2017-11-15T13:33:06.134Z,75
2017-11-15T13:34:06.163Z,80
2017-11-15T13:35:06.203Z,80
2017-11-15T13:36:06.223Z,80
2017-11-15T13:37:06.517Z,70
2017-11-15T13:38:06.343Z,60
2017-11-15T13:39:06.428Z,60
2017-11-15T13:40:06.675Z,60
2017-11-15T13:41:06.456Z,55
2017-11-15T13:42:06.447Z,55
2017-11-15T13:43:06.481Z,55
2017-11-15T13:44:06.768Z,55
2017-11-15T13:45:06.540Z,55
2017-11-15T13:46:06.571Z,55
2017-11-15T13:47:06.656Z,60
2017-11-15T13:48:06.834Z,60
2017-11-15T13:49:06.680Z,55
2017-11-15T13:50:06.711Z,55
2017-11-15T13:51:06.764Z,55
2017-11-15T13:52:06.774Z,50
2017-11-15T13:53:06.808Z,50
2017-11-15T13:54:06.846Z,50
2017-11-15T13:55:06.889Z,50
2017-11-15T13:56:06.912Z,50
2017-11-15T13:57:07.211Z,50
2017-11-15T13:58:06.983Z,50
2017-11-15T13:59:07.013Z,45
2017-11-15T14:00:07.051Z,40
2017-11-15T14:01:07.082Z,40
2017-11-15T14:02:07.116Z,40
2017-11-15T14:03:07.155Z,40
2017-11-15T14:04:07.189Z,40
2017-11-15T14:05:07.222Z,40
2017-11-15T14:06:07.254Z,40
2017-11-15T14:07:07.287Z,45
2017-11-15T14:08:07.325Z,40
2017-11-15T14:09:07.369Z,40
2017-11-15T14:10:07.392Z,40
2017-11-15T14:11:07.428Z,35
2017-11-15T14:12:07.461Z,30
2017-11-15T14:13:07.495Z,25
2017-11-15T14:14:07.524Z,25
2017-11-15T14:15:07.834Z,25
2017-11-15T14:16:07.596Z,20
2017-11-15T14:17:07.631Z,20
2017-11-15T14:18:07.681Z,20
2017-11-15T14:19:07.697Z,20
2017-11-15T14:20:07.818Z,20
2017-11-15T14:21:07.769Z,20
2017-11-15T14:22:07.806Z,20
2017-11-15T14:23:07.888Z,20
2017-11-15T14:24:08.129Z,15
2017-11-15T14:25:07.903Z,15
2017-11-15T14:26:07.937Z,15
2017-11-15T14:27:07.967Z,10
2017-11-15T14:28:08.004Z,15
2017-11-15T14:29:08.304Z,15
2017-11-15T14:30:08.083Z,15
2017-11-15T14:31:09.061Z,15
2017-11-15T14:32:08.140Z,15
2017-11-15T14:33:08.199Z,15
2017-11-15T14:34:08.211Z,15
2017-11-15T14:35:08.239Z,15
2017-11-15T14:36:08.292Z,10
2017-11-15T14:37:08.436Z,10
2017-11-15T14:38:08.344Z,10
2017-11-15T14:39:08.392Z,10
2017-11-15T14:40:08.421Z,10
2017-11-15T14:41:08.448Z,10
2017-11-15T14:42:08.483Z,10
2017-11-15T14:43:08.509Z,10
2017-11-15T14:44:08.558Z,10
2017-11-15T14:45:08.589Z,10
2017-11-15T14:46:08.874Z,10
2017-11-15T14:47:08.944Z,10
2017-11-15T14:48:08.718Z,10
2017-11-15T14:49:08.716Z,10
2017-11-15T14:50:09.013Z,10
2017-11-15T14:51:08.826Z,10
2017-11-15T14:52:08.911Z,10
2017-11-15T14:53:09.157Z,10
2017-11-15T14:54:08.909Z,10
2017-11-15T14:55:08.914Z,10
2017-11-15T14:56:09.232Z,10
2017-11-15T14:57:08.983Z,10
2017-11-15T14:58:09.061Z,10
2017-11-15T14:59:09.194Z,10
2017-11-15T15:00:09.091Z,10
2017-11-15T15:01:09.341Z,10
2017-11-15T15:02:09.158Z,10
2017-11-15T15:03:09.189Z,10
2017-11-15T15:04:09.985Z,10
2017-11-15T15:05:09.264Z,10
2017-11-15T15:06:09.556Z,5
2017-11-15T15:07:09.327Z,5
2017-11-15T15:08:09.353Z,5
2017-11-15T15:09:09.388Z,5
2017-11-15T15:10:09.426Z,5
2017-11-15T15:11:09.473Z,5
2017-11-15T15:12:09.497Z,5
2017-11-15T15:13:09.582Z,5
2017-11-15T15:14:10.805Z,5
2017-11-15T15:15:09.593Z,5
2017-11-15T15:16:09.657Z,0
2017-11-15T15:17:09.682Z,0
2017-11-15T15:18:09.968Z,0
2017-11-15T15:19:09.724Z,0
2017-11-15T15:20:10.027Z,0
2017-11-15T15:21:09.795Z,0
2017-11-15T15:22:09.829Z,0
2017-11-15T15:23:10.161Z,0
2017-11-15T15:24:09.895Z,0
2017-11-15T15:25:09.932Z,0
2017-11-15T15:26:09.957Z,0
2017-11-15T15:27:09.998Z,0
2017-11-15T15:28:10.189Z,0
2017-11-15T15:29:10.277Z,0
2017-11-15T15:30:10.108Z,0
2017-11-15T15:31:10.134Z,0
2017-11-15T15:32:10.162Z,0
2017-11-15T15:33:10.798Z,0
2017-11-15T15:34:10.256Z,0
2017-11-15T15:35:10.260Z,0
2017-11-15T15:36:10.293Z,0
2017-11-15T15:37:10.334Z,0
2017-11-15T15:38:10.360Z,0
2017-11-15T15:39:10.407Z,0
2017-11-15T15:40:10.430Z,0
2017-11-15T15:41:10.514Z,0
2017-11-15T15:42:11.674Z,0
2017-11-15T15:43:10.547Z,0
2017-11-15T15:44:10.565Z,0
2017-11-15T15:45:10.601Z,0
2017-11-15T15:46:10.633Z,0
2017-11-15T15:47:10.674Z,0
2017-11-15T15:48:10.692Z,0
2017-11-15T15:49:10.734Z,0
2017-11-15T15:50:10.760Z,0
2017-11-15T15:51:10.816Z,0
2017-11-15T15:52:11.106Z,0
2017-11-15T15:53:10.963Z,0
2017-11-15T15:54:10.908Z,0
2017-11-15T15:55:11.027Z,0
2017-11-15T15:56:10.967Z,0
2017-11-15T15:57:11.027Z,0
2017-11-15T15:58:11.048Z,0
2017-11-15T15:59:11.069Z,0
2017-11-15T16:00:11.102Z,0
2017-11-15T16:01:11.135Z,0
2017-11-15T16:02:11.161Z,0
2017-11-15T16:03:11.204Z,0
2017-11-15T16:04:11.508Z,0
2017-11-15T16:05:11.280Z,0
2017-11-15T16:06:11.341Z,0
2017-11-15T16:07:11.330Z,0
2017-11-15T16:08:11.424Z,0
2017-11-15T16:09:11.404Z,0
2017-11-15T16:10:11.437Z,0
2017-11-15T16:11:11.549Z,0
2017-11-15T16:12:11.518Z,0
2017-11-15T16:13:11.588Z,0
2017-11-15T16:14:11.573Z,0
2017-11-15T16:15:11.599Z,0
2017-11-15T16:16:11.651Z,0
2017-11-15T16:17:12.031Z,0
2017-11-15T16:18:11.693Z,0
2017-11-15T16:19:11.742Z,0
2017-11-15T16:20:11.797Z,0
2017-11-15T16:21:11.836Z,0
2017-11-15T16:22:11.882Z,0
2017-11-15T16:23:11.930Z,0
2017-11-15T16:24:11.913Z,0
2017-11-15T16:25:11.935Z,0
2017-11-15T16:26:11.992Z,0
2017-11-15T16:27:12.002Z,0
2017-11-15T16:28:12.044Z,0
2017-11-15T16:29:12.096Z,0
2017-11-15T16:30:12.102Z,0
2017-11-15T16:31:12.131Z,0
2017-11-15T16:32:12.170Z,0
2017-11-15T16:33:12.197Z,0
2017-11-15T16:34:12.232Z,0
2017-11-15T16:35:12.279Z,0
2017-11-15T16:36:12.306Z,0
2017-11-15T16:37:12.351Z,0
2017-11-15T16:38:12.378Z,0
2017-11-15T16:39:12.399Z,0
2017-11-15T16:40:12.436Z,0
2017-11-15T16:41:12.469Z,0
2017-11-15T16:42:12.506Z,0
2017-11-15T16:43:12.539Z,0
2017-11-15T16:44:12.838Z,0
2017-11-15T16:45:12.609Z,0
2017-11-15T16:46:12.905Z,0
2017-11-15T16:47:12.932Z,0
2017-11-15T16:48:12.700Z,0
2017-11-15T16:49:12.738Z,0
2017-11-15T16:50:12.767Z,0
2017-11-15T16:51:12.803Z,0
2017-11-15T16:52:12.838Z,0
2017-11-15T16:53:12.876Z,0
2017-11-15T16:54:12.908Z,0
2017-11-15T16:55:12.941Z,0
2017-11-15T16:56:12.973Z,0
2017-11-15T16:57:13.005Z,0
2017-11-15T16:58:13.309Z,0
2017-11-15T16:59:13.079Z,0
2017-11-15T17:00:13.110Z,0
2017-11-15T17:01:13.161Z,0
2017-11-15T17:02:13.186Z,0
2017-11-15T17:03:13.480Z,0
2017-11-15T17:04:13.255Z,0
2017-11-15T17:05:13.310Z,0
2017-11-15T17:06:13.303Z,0
2017-11-15T17:07:13.343Z,0
2017-11-15T17:08:13.373Z,0
2017-11-15T17:09:13.400Z,0
2017-11-15T17:10:13.444Z,0
2017-11-15T17:11:13.476Z,0
2017-11-15T17:12:13.510Z,0
2017-11-15T17:13:13.540Z,0
2017-11-15T17:14:13.582Z,0
2017-11-15T17:15:13.619Z,0
2017-11-15T17:16:13.644Z,0
2017-11-15T17:17:13.674Z,0
2017-11-15T17:18:13.785Z,0
2017-11-15T17:19:13.736Z,0
2017-11-15T17:20:13.779Z,0
2017-11-15T17:21:13.841Z,0
2017-11-15T17:22:13.847Z,0
2017-11-15T17:23:14.137Z,0
2017-11-15T17:24:14.180Z,0
2017-11-15T17:25:14.205Z,0
2017-11-15T17:26:13.986Z,0
2017-11-15T17:27:14.009Z,0
2017-11-15T17:28:14.046Z,0
2017-11-15T17:29:14.346Z,0
2017-11-15T17:30:14.107Z,0
2017-11-15T17:31:14.145Z,0
2017-11-15T17:32:14.179Z,0
2017-11-15T17:33:14.475Z,0
2017-11-15T17:34:14.239Z,0
2017-11-15T17:35:14.289Z,0
2017-11-15T17:36:14.448Z,0
2017-11-15T17:37:14.342Z,0
2017-11-15T17:38:14.374Z,0
2017-11-15T17:39:14.414Z,0
2017-11-15T17:40:14.442Z,0
2017-11-15T17:41:14.480Z,0
2017-11-15T17:42:14.511Z,0
2017-11-15T17:43:14.548Z,0
2017-11-15T17:44:14.577Z,0
2017-11-15T17:45:14.618Z,0
2017-11-15T17:46:14.644Z,0
2017-11-15T17:47:14.681Z,0
2017-11-15T17:48:14.716Z,0
2017-11-15T17:49:14.741Z,0
2017-11-15T17:50:14.775Z,0
2017-11-15T17:51:14.822Z,0
2017-11-15T17:52:14.841Z,0
2017-11-15T17:53:14.877Z,0
2017-11-15T17:54:14.906Z,0
2017-11-15T17:55:15.229Z,0
2017-11-15T17:56:14.977Z,0
2017-11-15T17:57:15.019Z,0
2017-11-15T17:58:15.045Z,0
2017-11-15T17:59:15.086Z,0
2017-11-15T18:00:15.110Z,0
2017-11-15T18:01:15.141Z,0
2017-11-15T18:02:15.440Z,0
2017-11-15T18:03:15.209Z,0
2017-11-15T18:04:15.241Z,0
2017-11-15T18:05:15.270Z,0
2017-11-15T18:06:15.563Z,0
2017-11-15T18:07:15.888Z,0
2017-11-15T18:08:15.385Z,0
2017-11-15T18:09:15.552Z,0
2017-11-15T18:10:15.437Z,0
2017-11-15T18:11:15.552Z,0
2017-11-15T18:12:15.515Z,0
2017-11-15T18:13:15.548Z,0
2017-11-15T18:14:15.588Z,0
2017-11-15T18:15:15.671Z,0
2017-11-15T18:16:15.640Z,0
2017-11-15T18:17:15.681Z,0
2017-11-15T18:18:15.705Z,0
2017-11-15T18:19:16.291Z,0
2017-11-15T18:20:15.779Z,0
2017-11-15T18:21:16.081Z,0
2017-11-15T18:22:15.857Z,0
2017-11-15T18:23:15.873Z,0
2017-11-15T18:24:16.193Z,0
2017-11-15T18:25:15.948Z,0
2017-11-15T18:26:15.974Z,0
2017-11-15T18:27:16.010Z,0
2017-11-15T18:28:16.317Z,0
2017-11-15T18:29:16.077Z,0
2017-11-15T18:30:16.110Z,0
2017-11-15T18:31:16.139Z,0
2017-11-15T18:32:16.168Z,0
2017-11-15T18:33:16.200Z,0
2017-11-15T18:34:16.257Z,0
2017-11-15T18:35:16.537Z,0
2017-11-15T18:36:16.309Z,0
2017-11-15T18:37:16.617Z,0
2017-11-15T18:38:16.379Z,0
2017-11-15T18:39:16.405Z,0
2017-11-15T18:40:16.433Z,0
2017-11-15T18:41:16.476Z,0
2017-11-15T18:42:16.506Z,0
2017-11-15T18:43:16.544Z,0
2017-11-15T18:44:16.577Z,0
2017-11-15T18:45:16.878Z,0
2017-11-15T18:46:16.643Z,0
2017-11-15T18:47:16.674Z,0
2017-11-15T18:48:16.712Z,0
2017-11-15T18:49:16.748Z,0
2017-11-15T18:50:16.772Z,0
2017-11-15T18:51:16.913Z,0
2017-11-15T18:52:16.848Z,0
2017-11-15T18:53:16.880Z,0
2017-11-15T18:54:16.904Z,0
2017-11-15T18:55:17.217Z,0
2017-11-15T18:56:16.977Z,0
2017-11-15T18:57:17.009Z,0
2017-11-15T18:58:17.045Z,0
2017-11-15T18:59:17.076Z,0
2017-11-15T19:00:17.102Z,0
2017-11-15T19:01:17.150Z,0
2017-11-15T19:02:17.181Z,0
2017-11-15T19:03:17.203Z,0
2017-11-15T19:04:17.238Z,0
2017-11-15T19:05:17.271Z,0
2017-11-15T19:06:17.309Z,0
2017-11-15T19:07:17.619Z,0
2017-11-15T19:08:17.374Z,0
2017-11-15T19:09:17.401Z,0
2017-11-15T19:10:17.440Z,0
2017-11-15T19:11:17.477Z,0
2017-11-15T19:12:17.521Z,0
2017-11-15T19:13:17.543Z,0
2017-11-15T19:14:17.570Z,0
2017-11-15T19:15:17.884Z,0
2017-11-15T19:16:17.638Z,0
2017-11-15T19:17:17.671Z,0
2017-11-15T19:18:17.979Z,0
2017-11-15T19:19:17.739Z,0
2017-11-15T19:20:17.768Z,0
2017-11-15T19:21:17.807Z,0
2017-11-15T19:22:17.834Z,0
2017-11-15T19:23:17.869Z,0
2017-11-15T19:24:17.908Z,0
2017-11-15T19:25:17.938Z,0
2017-11-15T19:26:17.986Z,0
2017-11-15T19:27:18.004Z,0
2017-11-15T19:28:18.038Z,0
2017-11-15T19:29:18.067Z,0
2017-11-15T19:30:18.104Z,0
2017-11-15T19:31:18.141Z,0
2017-11-15T19:32:18.172Z,0
2017-11-15T19:33:18.729Z,0
2017-11-15T19:34:18.235Z,0
2017-11-15T19:35:18.526Z,0
2017-11-15T19:36:18.300Z,0
2017-11-15T19:37:18.340Z,0
2017-11-15T19:38:18.364Z,0
2017-11-15T19:39:18.401Z,0
2017-11-15T19:40:18.439Z,0
2017-11-15T19:41:18.482Z,0
2017-11-15T19:42:18.769Z,0
2017-11-15T19:43:18.539Z,0
2017-11-15T19:44:18.568Z,0
2017-11-15T19:45:18.612Z,0
2017-11-15T19:46:18.636Z,0
2017-11-15T19:47:18.670Z,0
2017-11-15T19:48:18.698Z,0
2017-11-15T19:49:18.734Z,0
2017-11-15T19:50:18.778Z,0
2017-11-15T19:51:18.803Z,0
2017-11-15T19:52:18.838Z,0
2017-11-15T19:53:18.867Z,0
2017-11-15T19:54:18.904Z,0
2017-11-15T19:55:18.942Z,0
2017-11-15T19:56:18.972Z,0
2017-11-15T19:57:19.005Z,0
2017-11-15T19:58:19.036Z,0
2017-11-15T19:59:19.068Z,0
2017-11-15T20:00:19.106Z,0
2017-11-15T20:01:19.132Z,0
2017-11-15T20:02:19.168Z,0
2017-11-15T20:03:19.197Z,0
2017-11-15T20:04:19.238Z,0
2017-11-15T20:05:19.526Z,0
2017-11-15T20:06:19.336Z,0
2017-11-15T20:07:19.611Z,0
2017-11-15T20:08:19.373Z,0
2017-11-15T20:09:19.410Z,0
2017-11-15T20:10:19.443Z,0
2017-11-15T20:11:19.467Z,0
2017-11-15T20:12:19.498Z,0
2017-11-15T20:13:19.532Z,0
2017-11-15T20:14:19.564Z,0
2017-11-15T20:15:19.604Z,0
2017-11-15T20:16:19.639Z,0
2017-11-15T20:17:19.935Z,0
2017-11-15T20:18:19.968Z,0
2017-11-15T20:19:19.735Z,0
2017-11-15T20:20:19.770Z,0
2017-11-15T20:21:19.805Z,0
2017-11-15T20:22:19.837Z,0
2017-11-15T20:23:19.873Z,0
2017-11-15T20:24:19.908Z,0
2017-11-15T20:25:19.934Z,0
2017-11-15T20:26:19.983Z,0
2017-11-15T20:27:20.006Z,0
2017-11-15T20:28:20.305Z,0
2017-11-15T20:29:20.066Z,0
2017-11-15T20:30:20.368Z,0
2017-11-15T20:31:20.138Z,0
2017-11-15T20:32:20.169Z,0
2017-11-15T20:33:20.212Z,0
2017-11-15T20:34:20.237Z,0
2017-11-15T20:35:20.270Z,0
2017-11-15T20:36:20.574Z,0
2017-11-15T20:37:20.332Z,0
2017-11-15T20:38:20.378Z,0
2017-11-15T20:39:20.409Z,0
2017-11-15T20:40:20.438Z,0
2017-11-15T20:41:20.472Z,0
2017-11-15T20:42:20.508Z,0
2017-11-15T20:43:20.537Z,0
2017-11-15T20:44:20.573Z,0
2017-11-15T20:45:20.606Z,0
2017-11-15T20:46:20.637Z,0
2017-11-15T20:47:20.676Z,0
2017-11-15T20:48:20.705Z,0
2017-11-15T20:49:20.744Z,0
2017-11-15T20:50:20.767Z,0
2017-11-15T20:51:20.808Z,0
2017-11-15T20:52:21.100Z,0
2017-11-15T20:53:20.881Z,0
2017-11-15T20:54:20.906Z,0
2017-11-15T20:55:20.939Z,0
2017-11-15T20:56:20.974Z,0
2017-11-15T20:57:21.009Z,0
2017-11-15T20:58:21.036Z,0
2017-11-15T20:59:21.070Z,0
2017-11-15T21:00:21.109Z,0
2017-11-15T21:01:21.610Z,0
2017-11-15T21:02:21.171Z,0
2017-11-15T21:03:21.209Z,0
2017-11-15T21:04:21.235Z,0
2017-11-15T21:05:21.269Z,0
2017-11-15T21:06:21.306Z,0
2017-11-15T21:07:21.616Z,0
2017-11-15T21:08:21.369Z,0
2017-11-15T21:09:21.406Z,0
2017-11-15T21:10:21.442Z,0
2017-11-15T21:11:21.476Z,0
2017-11-15T21:12:21.775Z,0
2017-11-15T21:13:21.534Z,0
2017-11-15T21:14:21.604Z,0
2017-11-15T21:15:21.612Z,0
2017-11-15T21:16:21.642Z,0
2017-11-15T21:17:21.681Z,0
2017-11-15T21:18:21.709Z,0
2017-11-15T21:19:21.742Z,0
2017-11-15T21:20:21.774Z,0
2017-11-15T21:21:21.800Z,0
2017-11-15T21:22:21.841Z,0
2017-11-15T21:23:21.879Z,0
2017-11-15T21:24:21.905Z,0
2017-11-15T21:25:21.943Z,0
2017-11-15T21:26:21.970Z,0
2017-11-15T21:27:22.009Z,0
2017-11-15T21:28:22.043Z,0
2017-11-15T21:29:22.075Z,0
2017-11-15T21:30:22.108Z,0
2017-11-15T21:31:22.144Z,0
2017-11-15T21:32:22.169Z,0
2017-11-15T21:33:22.208Z,0
2017-11-15T21:34:22.244Z,0
2017-11-15T21:35:22.276Z,0
2017-11-15T21:36:22.309Z,0
2017-11-15T21:37:22.345Z,0
2017-11-15T21:38:22.374Z,0
2017-11-15T21:39:22.407Z,0
2017-11-15T21:40:22.438Z,0
2017-11-15T21:41:22.478Z,0
2017-11-15T21:42:22.772Z,0
2017-11-15T21:43:22.540Z,0
2017-11-15T21:44:23.031Z,0
2017-11-15T21:45:22.611Z,0
2017-11-15T21:46:22.645Z,0
2017-11-15T21:47:22.673Z,0
2017-11-15T21:48:22.713Z,0
2017-11-15T21:49:22.745Z,0
2017-11-15T21:50:22.777Z,0
2017-11-15T21:51:22.811Z,0
2017-11-15T21:52:22.842Z,0
2017-11-15T21:53:22.878Z,0
2017-11-15T21:54:22.907Z,0
2017-11-15T21:55:22.946Z,0
2017-11-15T21:56:22.973Z,0
2017-11-15T21:57:23.015Z,0
2017-11-15T21:58:23.045Z,0
2017-11-15T21:59:23.080Z,0
2017-11-15T22:00:23.383Z,0
2017-11-15T22:01:23.142Z,0
2017-11-15T22:02:23.174Z,0
2017-11-15T22:03:23.213Z,0
2017-11-15T22:04:23.242Z,0
2017-11-15T22:05:23.283Z,0
2017-11-15T22:06:23.309Z,0
2017-11-15T22:07:23.346Z,0
2017-11-15T22:08:23.378Z,0
2017-11-15T22:09:23.406Z,0
2017-11-15T22:10:23.447Z,0
2017-11-15T22:11:23.745Z,0
2017-11-15T22:12:23.770Z,0
2017-11-15T22:13:23.545Z,0
2017-11-15T22:14:23.575Z,0
2017-11-15T22:15:23.609Z,0
2017-11-15T22:16:23.654Z,0
2017-11-15T22:17:23.688Z,0
2017-11-15T22:18:23.716Z,0
2017-11-15T22:19:23.741Z,0
2017-11-15T22:20:23.781Z,0
2017-11-15T22:21:23.816Z,0
2017-11-15T22:22:23.848Z,0
2017-11-15T22:23:23.879Z,0
2017-11-15T22:24:23.914Z,0
2017-11-15T22:25:23.946Z,0
2017-11-15T22:26:23.979Z,0
2017-11-15T22:27:24.010Z,0
2017-11-15T22:28:24.045Z,0
2017-11-15T22:29:24.619Z,0
2017-11-15T22:30:24.118Z,0
2017-11-15T22:31:24.144Z,0
2017-11-15T22:32:24.188Z,0
2017-11-15T22:33:24.215Z,0
2017-11-15T22:34:24.244Z,0
2017-11-15T22:35:24.322Z,0
2017-11-15T22:36:24.311Z,0
2017-11-15T22:37:24.573Z,0
2017-11-15T22:38:24.643Z,0
2017-11-15T22:39:24.685Z,0
2017-11-15T22:40:24.444Z,0
2017-11-15T22:41:24.482Z,0
2017-11-15T22:42:24.511Z,0
2017-11-15T22:43:24.553Z,0
2017-11-15T22:44:24.578Z,0
2017-11-15T22:45:24.613Z,0
2017-11-15T22:46:24.648Z,0
2017-11-15T22:47:24.684Z,0
2017-11-15T22:48:24.714Z,0
2017-11-15T22:49:24.745Z,0
2017-11-15T22:50:24.781Z,0
2017-11-15T22:51:25.082Z,0
2017-11-15T22:52:24.847Z,0
2017-11-15T22:53:24.889Z,0
2017-11-15T22:54:24.913Z,0
2017-11-15T22:55:24.953Z,0
2017-11-15T22:56:24.997Z,0
2017-11-15T22:57:25.021Z,0
2017-11-15T22:58:25.318Z,0
2017-11-15T22:59:25.080Z,0
2017-11-15T23:00:25.116Z,0
2017-11-15T23:01:25.425Z,0
2017-11-15T23:02:25.459Z,0
2017-11-15T23:03:25.493Z,0
2017-11-15T23:04:25.254Z,0
2017-11-15T23:05:25.555Z,0
2017-11-15T23:06:25.312Z,0
2017-11-15T23:07:25.356Z,0
2017-11-15T23:08:25.391Z,0
2017-11-15T23:09:25.418Z,0
2017-11-15T23:10:25.452Z,0
2017-11-15T23:11:25.483Z,0
2017-11-15T23:12:25.515Z,0
2017-11-15T23:13:25.547Z,0
2017-11-15T23:14:25.852Z,0
2017-11-15T23:15:25.893Z,0
2017-11-15T23:16:25.648Z,0
2017-11-15T23:17:25.685Z,0
2017-11-15T23:18:25.731Z,0
2017-11-15T23:19:25.750Z,0
2017-11-15T23:20:25.789Z,0
2017-11-15T23:21:25.813Z,0
2017-11-15T23:22:25.854Z,0
2017-11-15T23:23:25.889Z,0
2017-11-15T23:24:25.920Z,0
2017-11-15T23:25:25.947Z,0
2017-11-15T23:26:25.991Z,0
2017-11-15T23:27:26.015Z,0
2017-11-15T23:28:26.048Z,0
2017-11-15T23:29:26.136Z,0
2017-11-15T23:30:26.127Z,0
2017-11-15T23:31:26.414Z,0
2017-11-15T23:32:26.188Z,0
2017-11-15T23:33:26.220Z,0
2017-11-15T23:34:26.257Z,0
2017-11-15T23:35:26.287Z,0
2017-11-15T23:36:26.579Z,0
2017-11-15T23:37:26.355Z,0
2017-11-15T23:38:26.389Z,0
2017-11-15T23:39:26.432Z,0
2017-11-15T23:40:26.457Z,0
2017-11-15T23:41:26.750Z,0
2017-11-15T23:42:26.524Z,0
2017-11-15T23:43:26.556Z,0
2017-11-15T23:44:26.640Z,0
2017-11-15T23:45:26.621Z,0
2017-11-15T23:46:26.657Z,0
2017-11-15T23:47:26.684Z,0
2017-11-15T23:48:26.725Z,0
2017-11-15T23:49:26.760Z,0
2017-11-15T23:50:26.808Z,0
2017-11-15T23:51:26.827Z,0
2017-11-15T23:52:26.852Z,0
2017-11-15T23:53:26.892Z,0
2017-11-15T23:54:26.922Z,0
2017-11-15T23:55:26.958Z,0
2017-11-15T23:56:27.249Z,0
2017-11-15T23:57:27.026Z,0
2017-11-15T23:58:27.065Z,0
2017-11-15T23:59:27.092Z,0
